Time;durP1;ratioP1;P1;durP2;ratioP2;P2;SDS_P1;SDS_P2;PMS_P1;PMS_P2;Temp;Humidity;BMP_temperature;BMP_pressure;BME280_temperature;BME280_humidity;BME280_pressure;Samples;Min_cycle;Max_cycle;Signal;HPM_P1;HPM_P2
2022/06/20 00:01:07;;;;;;;5.10;2.35;;;12.90;99.90;;;;;;4984050;28;20041;-89
2022/06/20 00:03:44;;;;;;;5.55;2.40;;;12.90;99.90;;;;;;4981404;28;20265;-89
2022/06/20 00:06:15;;;;;;;7.40;2.30;;;12.90;99.90;;;;;;4980279;28;20100;-88
2022/06/20 00:08:41;;;;;;;7.72;2.47;;;12.90;99.90;;;;;;4980419;28;20066;-89
2022/06/20 00:11:12;;;;;;;7.38;2.45;;;12.90;99.90;;;;;;4986051;28;20497;-89
2022/06/20 00:13:44;;;;;;;5.78;2.63;;;12.90;99.90;;;;;;4994614;28;20046;-88
2022/06/20 00:16:14;;;;;;;9.00;2.67;;;12.90;99.90;;;;;;4992920;28;20054;-88
2022/06/20 00:18:40;;;;;;;6.38;2.50;;;12.90;99.90;;;;;;4978073;28;20417;-89
2022/06/20 00:21:09;;;;;;;7.32;2.63;;;12.90;99.90;;;;;;4984237;28;20034;-89
2022/06/20 00:23:35;;;;;;;5.82;2.42;;;12.90;99.90;;;;;;4984552;28;20113;-88
2022/06/20 00:26:00;;;;;;;8.00;2.88;;;12.90;99.90;;;;;;4995027;28;20075;-89
2022/06/20 00:28:26;;;;;;;7.65;2.90;;;12.90;99.90;;;;;;4985843;28;20038;-88
2022/06/20 00:30:52;;;;;;;6.18;2.60;;;13.00;99.90;;;;;;4983740;28;20049;-89
2022/06/20 00:33:17;;;;;;;7.38;2.88;;;12.90;99.90;;;;;;4982827;28;20034;-88
2022/06/20 00:35:43;;;;;;;7.00;2.92;;;12.90;99.90;;;;;;4982210;28;20066;-89
2022/06/20 00:38:16;;;;;;;10.18;2.70;;;13.00;99.90;;;;;;4981478;28;20228;-89
2022/06/20 00:40:49;;;;;;;6.55;2.85;;;12.90;99.90;;;;;;4979642;28;20070;-88
2022/06/20 00:43:23;;;;;;;7.15;2.35;;;12.90;99.90;;;;;;5008884;28;20062;-89
2022/06/20 00:45:52;;;;;;;8.30;2.97;;;12.90;99.90;;;;;;5011687;28;20282;-89
2022/06/20 00:48:30;;;;;;;8.85;2.88;;;12.90;99.90;;;;;;5012287;28;20061;-89
2022/06/20 00:51:01;;;;;;;7.72;2.90;;;12.90;99.90;;;;;;4999681;28;20401;-88
2022/06/20 00:53:40;;;;;;;7.82;3.03;;;12.90;99.90;;;;;;4982862;28;20506;-88
2022/06/20 00:56:17;;;;;;;9.60;3.17;;;12.90;99.90;;;;;;4995500;28;20077;-89
2022/06/20 00:58:59;;;;;;;6.55;2.92;;;12.80;99.90;;;;;;4983437;28;20030;-89
2022/06/20 01:01:33;;;;;;;8.85;2.78;;;12.80;99.90;;;;;;4995385;28;20046;-88
2022/06/20 01:04:18;;;;;;;10.37;3.00;;;12.80;1.00;;;;;;5011808;28;20058;-89
2022/06/20 01:06:56;;;;;;;11.50;2.70;;;12.70;1.00;;;;;;4997705;28;20041;-89
2022/06/20 01:09:33;;;;;;;10.27;3.53;;;12.70;1.00;;;;;;4998944;28;20080;-89
2022/06/20 01:12:03;;;;;;;6.25;2.80;;;12.60;1.00;;;;;;5008284;28;20073;-89
2022/06/20 01:14:38;;;;;;;8.63;2.88;;;12.60;1.00;;;;;;4979221;28;20078;-88
2022/06/20 01:17:31;;;;;;;9.52;3.10;;;12.50;1.00;;;;;;5008745;28;20152;-89
2022/06/20 01:20:04;;;;;;;8.15;2.97;;;12.50;1.00;;;;;;4994509;28;20107;-88
2022/06/20 01:22:40;;;;;;;7.90;2.88;;;12.50;1.00;;;;;;5008308;28;20121;-89
2022/06/20 01:25:32;;;;;;;8.25;3.05;;;12.50;1.00;;;;;;4997852;28;20073;-89
2022/06/20 01:27:59;;;;;;;10.45;3.40;;;12.50;1.00;;;;;;4978639;28;20141;-88
2022/06/20 01:30:30;;;;;;;7.38;3.20;;;12.40;1.00;;;;;;4983465;28;20033;-88
2022/06/20 01:32:57;;;;;;;6.25;3.17;;;12.40;1.00;;;;;;4980671;28;20050;-88
2022/06/20 01:38:11;;;;;;;9.95;3.10;;;12.30;1.00;;;;;;5013969;28;20118;-89
2022/06/20 01:40:39;;;;;;;8.82;3.00;;;12.30;1.00;;;;;;5000504;28;20042;-89
2022/06/20 01:43:06;;;;;;;7.95;3.40;;;12.20;1.00;;;;;;4985053;28;20766;-89
2022/06/20 01:48:23;;;;;;;7.60;2.90;;;12.20;1.00;;;;;;5015130;28;20781;-89
2022/06/20 01:50:49;;;;;;;9.77;2.80;;;12.20;1.00;;;;;;5012061;28;20077;-88
2022/06/20 01:53:18;;;;;;;10.43;2.95;;;12.10;1.00;;;;;;5004517;28;20042;-89
2022/06/20 01:55:48;;;;;;;6.32;2.70;;;12.10;1.00;;;;;;4987104;28;20065;-88
2022/06/20 01:58:33;;;;;;;7.68;3.00;;;12.10;99.90;;;;;;4984114;28;20755;-88
2022/06/20 02:01:03;;;;;;;9.65;3.15;;;12.10;99.90;;;;;;5014513;28;20153;-89
2022/06/20 02:03:31;;;;;;;10.23;2.78;;;12.00;99.90;;;;;;4986163;28;20034;-88
2022/06/20 02:05:58;;;;;;;6.38;2.90;;;11.90;99.90;;;;;;4985967;28;20064;-89
2022/06/20 02:08:24;;;;;;;7.32;2.88;;;12.00;99.90;;;;;;4987171;28;20167;-87
2022/06/20 02:11:37;;;;;;;7.40;2.42;;;11.90;99.90;;;;;;4984527;28;20111;-88
2022/06/20 02:14:11;;;;;;;4.72;2.45;;;11.90;99.90;;;;;;4968012;28;20061;-89
2022/06/20 02:16:43;;;;;;;7.83;2.57;;;11.80;99.90;;;;;;5013637;28;20543;-87
2022/06/20 02:19:14;;;;;;;7.13;2.60;;;11.70;99.90;;;;;;5014116;28;20041;-88
2022/06/20 02:21:41;;;;;;;5.93;3.10;;;11.70;99.90;;;;;;5001912;28;20165;-89
2022/06/20 02:24:13;;;;;;;5.68;2.70;;;11.60;99.90;;;;;;5014585;28;20489;-89
2022/06/20 02:26:41;;;;;;;5.15;2.50;;;11.50;99.90;;;;;;4998436;28;20050;-88
2022/06/20 02:29:21;;;;;;;6.85;2.65;;;11.40;99.90;;;;;;4984569;28;20105;-88
2022/06/20 02:31:52;;;;;;;8.65;2.78;;;11.30;99.90;;;;;;4980802;28;20054;-88
2022/06/20 02:34:18;;;;;;;8.43;2.70;;;11.30;99.90;;;;;;4981744;28;20575;-89
2022/06/20 02:36:44;;;;;;;5.85;2.50;;;11.20;99.90;;;;;;4984519;28;20045;-89
2022/06/20 02:39:10;;;;;;;9.60;2.75;;;11.20;99.90;;;;;;4983208;28;20053;-88
2022/06/20 02:41:39;;;;;;;5.78;2.78;;;11.20;99.90;;;;;;5011786;28;20089;-88
2022/06/20 02:44:15;;;;;;;8.55;2.50;;;11.10;99.90;;;;;;5001148;28;20074;-89
2022/06/20 02:46:42;;;;;;;4.88;2.42;;;11.00;99.90;;;;;;4993352;28;20077;-88
2022/06/20 02:49:11;;;;;;;7.40;2.97;;;10.90;1.00;;;;;;4978820;28;20442;-88
2022/06/20 02:51:40;;;;;;;5.05;2.83;;;10.90;1.00;;;;;;4976327;28;20209;-89
2022/06/20 02:54:09;;;;;;;6.72;2.63;;;10.90;1.00;;;;;;4978482;28;20488;-88
2022/06/20 02:56:41;;;;;;;7.43;2.83;;;11.00;1.00;;;;;;4981859;28;20050;-88
2022/06/20 02:59:25;;;;;;;7.00;2.97;;;11.00;1.00;;;;;;4976150;28;20061;-88
2022/06/20 03:02:02;;;;;;;7.07;2.80;;;11.10;1.00;;;;;;4978970;28;20057;-88
2022/06/20 03:04:31;;;;;;;8.60;3.05;;;11.10;1.00;;;;;;5001052;28;20042;-88
2022/06/20 03:07:03;;;;;;;6.95;3.00;;;11.20;1.00;;;;;;4987639;28;20117;-88
2022/06/20 03:09:32;;;;;;;8.93;3.25;;;11.20;1.00;;;;;;4983521;28;20046;-89
2022/06/20 03:12:01;;;;;;;6.88;3.22;;;11.20;1.00;;;;;;4994433;28;20184;-89
2022/06/20 03:14:31;;;;;;;5.93;2.80;;;11.10;1.00;;;;;;4996065;28;20214;-89
2022/06/20 03:16:58;;;;;;;10.40;3.30;;;11.00;99.90;;;;;;4984146;28;20030;-88
2022/06/20 03:19:27;;;;;;;7.85;3.58;;;11.00;1.00;;;;;;4980357;28;20125;-88
2022/06/20 03:22:01;;;;;;;10.43;3.20;;;10.90;99.90;;;;;;5010597;28;20057;-88
2022/06/20 03:24:28;;;;;;;9.07;2.97;;;10.80;1.00;;;;;;4977737;28;20050;-89
2022/06/20 03:26:55;;;;;;;8.18;2.70;;;10.80;1.00;;;;;;4976642;28;20162;-88
2022/06/20 03:29:25;;;;;;;6.95;2.88;;;10.80;1.00;;;;;;4992878;28;20038;-87
2022/06/20 03:31:51;;;;;;;9.95;3.20;;;10.70;1.00;;;;;;5011396;28;20148;-88
2022/06/20 03:34:17;;;;;;;10.32;3.22;;;10.70;1.00;;;;;;4981801;28;20062;-88
2022/06/20 03:36:47;;;;;;;8.93;3.30;;;10.70;1.00;;;;;;4982597;28;20052;-88
2022/06/20 03:39:13;;;;;;;8.95;3.35;;;10.70;1.00;;;;;;4981388;28;20200;-88
2022/06/20 03:41:40;;;;;;;6.68;3.42;;;10.80;1.00;;;;;;4997677;28;20046;-88
2022/06/20 03:44:38;;;;;;;6.95;3.13;;;10.80;1.00;;;;;;4987655;28;20058;-88
2022/06/20 03:47:21;;;;;;;10.00;3.40;;;10.80;1.00;;;;;;4982551;28;20047;-87
2022/06/20 03:50:10;;;;;;;6.40;3.28;;;10.90;1.00;;;;;;4983129;28;20145;-88
2022/06/20 03:52:46;;;;;;;7.43;3.03;;;10.90;1.00;;;;;;4981916;28;20046;-88
2022/06/20 03:55:19;;;;;;;6.38;3.40;;;11.00;1.00;;;;;;4995126;28;20057;-88
2022/06/20 03:57:59;;;;;;;10.95;3.42;;;10.90;1.00;;;;;;5010575;28;20387;-87
2022/06/20 04:00:42;;;;;;;6.70;3.17;;;11.00;1.00;;;;;;5010706;28;20622;-87
2022/06/20 04:03:13;;;;;;;5.55;3.20;;;11.00;1.00;;;;;;4963738;28;20038;-87
2022/06/20 04:05:44;;;;;;;8.05;3.60;;;11.10;1.00;;;;;;4982393;28;20353;-88
2022/06/20 04:08:25;;;;;;;8.80;3.50;;;11.10;1.00;;;;;;4980630;28;20039;-89
2022/06/20 04:11:01;;;;;;;10.82;3.53;;;11.10;1.00;;;;;;4986633;28;20080;-88
2022/06/20 04:13:41;;;;;;;7.68;3.55;;;11.20;1.00;;;;;;4998207;28;20046;-87
2022/06/20 04:16:14;;;;;;;8.45;3.40;;;11.30;1.00;;;;;;4963976;28;20088;-88
2022/06/20 04:19:12;;;;;;;8.60;3.65;;;11.40;1.00;;;;;;4981702;28;20045;-88
2022/06/20 04:21:51;;;;;;;8.00;3.45;;;11.40;1.00;;;;;;4979804;28;20241;-88
2022/06/20 04:24:34;;;;;;;7.15;3.70;;;11.60;1.00;;;;;;5010223;28;20038;-88
2022/06/20 04:27:22;;;;;;;9.18;3.20;;;11.70;99.90;;;;;;4982905;28;20046;-87
2022/06/20 04:29:53;;;;;;;6.68;3.20;;;11.80;99.90;;;;;;5007525;28;20129;-88
2022/06/20 04:32:19;;;;;;;9.15;3.70;;;11.90;99.90;;;;;;4982998;28;20493;-87
2022/06/20 04:34:52;;;;;;;6.55;3.47;;;11.90;99.90;;;;;;4998345;28;20046;-88
2022/06/20 04:37:45;;;;;;;6.80;3.60;;;12.10;99.90;;;;;;5010710;28;20108;-88
2022/06/20 04:40:40;;;;;;;8.02;3.90;;;12.20;99.90;;;;;;4982498;28;20069;-87
2022/06/20 04:43:13;;;;;;;;;;;12.30;99.90;;;;;;5011342;28;20616;-87
2022/06/20 04:45:54;;;;;;;8.43;4.35;;;12.40;99.90;;;;;;4978924;28;19976;-88
2022/06/20 04:48:23;;;;;;;9.77;3.95;;;12.40;99.90;;;;;;4985207;28;20171;-88
2022/06/20 04:50:53;;;;;;;12.18;3.97;;;12.40;99.90;;;;;;4994029;28;20054;-88
2022/06/20 04:53:22;;;;;;;5.90;3.60;;;12.50;99.90;;;;;;4995591;28;20487;-87
2022/06/20 04:55:52;;;;;;;10.75;4.20;;;12.60;99.90;;;;;;5011573;28;20045;-87
2022/06/20 04:58:31;;;;;;;11.07;4.10;;;12.70;99.90;;;;;;4976932;28;20488;-88
2022/06/20 05:00:57;;;;;;;11.35;4.00;;;12.70;99.90;;;;;;4996894;28;20141;-87
2022/06/20 05:03:55;;;;;;;9.75;4.18;;;12.70;99.90;;;;;;4979225;28;20121;-87
2022/06/20 05:06:25;;;;;;;8.88;3.83;;;12.80;99.90;;;;;;4998521;28;20042;-87
2022/06/20 05:08:55;;;;;;;9.13;3.85;;;12.90;99.90;;;;;;4997195;28;20038;-87
2022/06/20 05:11:32;;;;;;;7.13;3.72;;;13.00;99.90;;;;;;4999094;28;20176;-87
2022/06/20 05:14:10;;;;;;;9.93;4.22;;;13.10;99.90;;;;;;4999592;28;20873;-88
2022/06/20 05:16:50;;;;;;;8.85;4.10;;;13.30;99.90;;;;;;5000718;28;20046;-87
2022/06/20 05:19:21;;;;;;;8.05;3.75;;;13.40;99.90;;;;;;4987035;28;20492;-88
2022/06/20 05:21:52;;;;;;;9.35;3.83;;;13.50;99.90;;;;;;4986659;28;20068;-87
2022/06/20 05:24:39;;;;;;;8.80;3.97;;;13.50;99.90;;;;;;5015437;28;20401;-87
2022/06/20 05:27:34;;;;;;;7.07;3.70;;;13.60;99.90;;;;;;5014345;28;20488;-88
2022/06/20 05:30:01;;;;;;;11.32;3.90;;;13.70;99.90;;;;;;4988173;28;20082;-87
2022/06/20 05:32:40;;;;;;;9.00;3.90;;;13.80;99.90;;;;;;4983066;28;20061;-88
2022/06/20 05:35:30;;;;;;;11.50;4.03;;;13.90;99.90;;;;;;4985541;28;20414;-87
2022/06/20 05:38:17;;;;;;;9.57;3.97;;;13.90;99.90;;;;;;4983555;28;20048;-88
2022/06/20 05:40:49;;;;;;;8.35;3.80;;;14.10;99.90;;;;;;4979916;28;20049;-87
2022/06/20 05:43:22;;;;;;;10.80;3.97;;;14.20;99.90;;;;;;5000441;28;20649;-87
2022/06/20 05:45:57;;;;;;;10.52;3.75;;;14.20;99.90;;;;;;5012370;28;20034;-88
2022/06/20 05:48:50;;;;;;;12.25;4.15;;;14.20;99.90;;;;;;4988393;28;20046;-87
2022/06/20 05:51:18;;;;;;;11.73;3.83;;;14.30;99.90;;;;;;4977990;28;20034;-88
2022/06/20 05:53:50;;;;;;;9.45;4.15;;;14.30;99.90;;;;;;5011379;28;20050;-85
2022/06/20 05:56:27;;;;;;;9.10;3.80;;;14.50;99.90;;;;;;4999030;28;21036;-84
2022/06/20 05:58:55;;;;;;;10.88;3.92;;;14.50;99.90;;;;;;5009194;28;20038;-85
2022/06/20 06:01:38;;;;;;;12.57;4.45;;;14.50;99.90;;;;;;4998612;28;20096;-85
2022/06/20 06:04:22;;;;;;;10.10;4.18;;;14.70;99.90;;;;;;4982255;28;20042;-84
2022/06/20 06:06:56;;;;;;;11.40;4.67;;;14.70;99.90;;;;;;4993879;28;20042;-84
2022/06/20 06:09:50;;;;;;;9.07;4.00;;;14.80;99.90;;;;;;4982559;28;20073;-84
2022/06/20 06:12:33;;;;;;;10.68;3.30;;;14.70;99.90;;;;;;5000115;28;20462;-85
2022/06/20 06:15:15;;;;;;;9.40;3.60;;;14.80;72.20;;;;;;4978360;28;20138;-85
2022/06/20 06:17:47;;;;;;;14.05;3.53;;;14.90;99.90;;;;;;4979551;28;20073;-85
2022/06/20 06:20:23;;;;;;;9.82;3.60;;;14.90;90.70;;;;;;4966767;28;20585;-85
2022/06/20 06:22:53;;;;;;;12.18;3.42;;;15.00;74.30;;;;;;4982400;28;20548;-85
2022/06/20 06:25:41;;;;;;;12.40;3.75;;;15.00;77.50;;;;;;5014071;28;20129;-85
2022/06/20 06:28:24;;;;;;;11.70;4.20;;;15.30;94.40;;;;;;5012089;28;20045;-85
2022/06/20 06:31:04;;;;;;;11.35;4.00;;;15.30;91.10;;;;;;5008204;28;20137;-85
2022/06/20 06:33:36;;;;;;;8.93;3.60;;;15.20;1.00;;;;;;4979913;28;20074;-85
2022/06/20 06:36:41;;;;;;;10.13;3.58;;;15.40;34.90;;;;;;4998478;28;20046;-85
2022/06/20 06:39:29;;;;;;;13.32;3.70;;;15.40;12.50;;;;;;4981077;28;20415;-85
2022/06/20 06:41:59;;;;;;;9.23;3.20;;;15.50;19.10;;;;;;4972935;28;20128;-86
2022/06/20 06:44:40;;;;;;;10.32;3.88;;;15.50;9.90;;;;;;5011107;28;20062;-84
2022/06/20 06:47:26;;;;;;;9.95;3.42;;;15.90;16.00;;;;;;4980252;28;20135;-84
2022/06/20 06:49:59;;;;;;;10.57;4.30;;;16.20;53.70;;;;;;4968483;28;20511;-85
2022/06/20 06:52:43;;;;;;;10.93;3.83;;;16.10;1.00;;;;;;5010081;28;20038;-85
2022/06/20 06:55:22;;;;;;;9.10;3.40;;;15.80;1.00;;;;;;5009775;28;20584;-85
2022/06/20 06:57:54;;;;;;;9.02;3.40;;;15.90;1.00;;;;;;4993654;28;20133;-84
2022/06/20 07:00:30;;;;;;;8.18;3.40;;;15.80;1.00;;;;;;5007386;28;20034;-85
2022/06/20 07:03:05;;;;;;;10.98;3.75;;;15.60;1.00;;;;;;4964393;28;20080;-85
2022/06/20 07:05:38;;;;;;;11.60;4.10;;;15.50;1.00;;;;;;4980925;28;20096;-85
2022/06/20 07:08:26;;;;;;;13.00;3.67;;;16.10;1.00;;;;;;5007696;28;20038;-85
2022/06/20 07:11:02;;;;;;;9.25;3.30;;;16.40;1.00;;;;;;4992921;28;20034;-85
2022/06/20 07:13:50;;;;;;;11.38;3.60;;;16.70;1.00;;;;;;4981760;28;20057;-84
2022/06/20 07:16:26;;;;;;;9.35;3.45;;;16.40;1.00;;;;;;5007986;28;20053;-85
2022/06/20 07:18:55;;;;;;;10.63;3.35;;;16.20;1.00;;;;;;4996056;28;20069;-85
2022/06/20 07:21:24;;;;;;;9.73;3.13;;;15.80;1.00;;;;;;5011614;28;20043;-85
2022/06/20 07:23:58;;;;;;;8.15;2.97;;;15.80;1.00;;;;;;4979830;28;20097;-85
2022/06/20 07:26:28;;;;;;;12.90;3.25;;;15.60;1.00;;;;;;5011185;28;20046;-85
2022/06/20 07:29:06;;;;;;;7.90;3.30;;;15.50;1.00;;;;;;4992925;28;20517;-84
2022/06/20 07:31:43;;;;;;;8.48;2.83;;;15.40;1.00;;;;;;4993249;28;20057;-84
2022/06/20 07:34:35;;;;;;;8.60;2.60;;;16.00;1.00;;;;;;5011629;28;20427;-84
2022/06/20 07:37:16;;;;;;;7.38;3.03;;;16.40;1.00;;;;;;5000115;28;20546;-84
2022/06/20 07:39:50;;;;;;;6.78;2.92;;;16.70;1.00;;;;;;4984299;28;20129;-85
2022/06/20 07:42:32;;;;;;;9.63;3.20;;;16.80;1.00;;;;;;5009190;28;20050;-85
2022/06/20 07:45:05;;;;;;;7.93;2.67;;;16.90;1.00;;;;;;4994616;28;20093;-85
2022/06/20 07:47:36;;;;;;;9.07;2.47;;;16.40;1.00;;;;;;5011946;28;20492;-85
2022/06/20 07:50:07;;;;;;;7.05;2.20;;;15.90;1.00;;;;;;4997810;28;20482;-84
2022/06/20 07:52:38;;;;;;;8.20;2.42;;;16.20;1.00;;;;;;4999730;28;20046;-85
2022/06/20 07:55:30;;;;;;;6.22;2.30;;;16.40;1.00;;;;;;5010438;28;20429;-84
2022/06/20 07:58:05;;;;;;;7.72;2.65;;;16.20;1.00;;;;;;5006655;28;20046;-85
2022/06/20 08:00:35;;;;;;;;;;;15.90;1.00;;;;;;4994076;28;20066;-85
2022/06/20 08:03:25;;;;;;;10.38;3.35;;;15.70;1.00;;;;;;4976483;28;19971;-85
2022/06/20 08:05:58;;;;;;;7.40;2.30;;;16.00;1.00;;;;;;4981901;28;20238;-85
2022/06/20 08:08:44;;;;;;;7.28;2.10;;;16.00;1.00;;;;;;4998543;28;20038;-84
2022/06/20 08:11:41;;;;;;;6.68;2.25;;;15.90;1.00;;;;;;5007582;28;20057;-85
2022/06/20 08:14:26;;;;;;;7.88;2.22;;;15.90;1.00;;;;;;4979703;28;20054;-85
2022/06/20 08:16:58;;;;;;;8.15;2.22;;;16.40;1.00;;;;;;5012966;28;20050;-85
2022/06/20 08:19:25;;;;;;;6.35;1.83;;;16.80;1.00;;;;;;4996496;28;20129;-85
2022/06/20 08:21:58;;;;;;;6.25;2.33;;;17.00;1.00;;;;;;5014923;28;20175;-85
2022/06/20 08:24:30;;;;;;;7.95;2.13;;;17.20;1.00;;;;;;5000788;28;20081;-84
2022/06/20 08:27:10;;;;;;;3.55;1.45;;;16.90;1.00;;;;;;5000593;28;20046;-85
2022/06/20 08:29:40;;;;;;;4.70;1.92;;;16.50;1.00;;;;;;4983786;28;20061;-85
2022/06/20 08:32:14;;;;;;;4.47;1.80;;;17.20;1.00;;;;;;5010569;28;20054;-85
2022/06/20 08:34:58;;;;;;;6.78;1.90;;;16.40;1.00;;;;;;4981734;28;20397;-85
2022/06/20 08:37:39;;;;;;;4.93;1.90;;;17.10;1.00;;;;;;5013061;28;20702;-85
2022/06/20 08:40:35;;;;;;;3.70;2.00;;;17.00;1.00;;;;;;5012218;28;20384;-86
2022/06/20 08:43:46;;;;;;;6.38;1.88;;;17.00;1.00;;;;;;5000885;28;20081;-85
2022/06/20 08:46:43;;;;;;;6.30;1.83;;;17.30;1.00;;;;;;4978793;28;20058;-85
2022/06/20 08:49:46;;;;;;;5.78;2.15;;;16.90;1.00;;;;;;4996548;28;20470;-84
2022/06/20 08:52:27;;;;;;;4.20;1.90;;;16.60;1.00;;;;;;4999647;28;20131;-85
2022/06/20 08:55:22;;;;;;;5.22;2.30;;;16.50;1.00;;;;;;4982014;28;20050;-85
2022/06/20 08:58:13;;;;;;;6.73;2.30;;;16.30;1.00;;;;;;4954514;28;20312;-85
2022/06/20 09:01:35;;;;;;;6.75;2.17;;;16.00;1.00;;;;;;4990343;28;20061;-85
2022/06/20 09:04:41;;;;;;;7.20;2.15;;;16.00;1.00;;;;;;4949968;28;20062;-84
2022/06/20 09:07:12;;;;;;;6.32;2.20;;;16.80;1.00;;;;;;4946838;28;20045;-84
2022/06/20 09:10:06;;;;;;;6.32;2.20;;;17.90;1.00;;;;;;4982378;28;20119;-85
2022/06/20 09:12:48;;;;;;;5.15;1.88;;;18.10;1.00;;;;;;5013089;28;20042;-85
2022/06/20 09:15:38;;;;;;;7.20;2.22;;;18.40;1.00;;;;;;5013725;28;20064;-85
2022/06/20 09:18:13;;;;;;;7.82;2.13;;;17.70;99.90;;;;;;5005369;28;20117;-85
2022/06/20 09:20:52;;;;;;;5.63;2.20;;;17.30;1.00;;;;;;5014692;28;20053;-85
2022/06/20 09:23:34;;;;;;;9.63;2.22;;;17.10;1.00;;;;;;4991448;28;20046;-85
2022/06/20 09:26:04;;;;;;;9.93;2.38;;;17.00;1.00;;;;;;4980566;28;20225;-85
2022/06/20 09:29:10;;;;;;;5.55;2.10;;;17.00;1.00;;;;;;4998287;28;20043;-85
2022/06/20 09:31:50;;;;;;;6.22;2.17;;;17.90;1.00;;;;;;5012823;28;20042;-85
2022/06/20 09:34:28;;;;;;;6.03;2.17;;;17.20;99.90;;;;;;4997266;28;20416;-85
2022/06/20 09:37:22;;;;;;;3.70;1.73;;;17.00;99.90;;;;;;4982521;28;20058;-85
2022/06/20 09:40:10;;;;;;;4.20;1.90;;;17.20;99.90;;;;;;4983743;28;20073;-85
2022/06/20 09:42:59;;;;;;;5.65;1.75;;;17.60;99.90;;;;;;4999166;28;20117;-85
2022/06/20 09:45:52;;;;;;;3.45;1.70;;;17.80;99.90;;;;;;5010149;28;20100;-85
2022/06/20 09:48:44;;;;;;;6.53;1.70;;;17.50;99.90;;;;;;5001864;28;20096;-85
2022/06/20 09:51:21;;;;;;;2.83;1.80;;;17.30;99.90;;;;;;5000578;28;20149;-85
2022/06/20 09:54:14;;;;;;;4.47;1.90;;;17.10;99.90;;;;;;4986527;28;20180;-85
2022/06/20 09:56:59;;;;;;;5.90;2.30;;;16.80;99.90;;;;;;5000860;28;20125;-85
2022/06/20 10:00:08;;;;;;;6.78;1.95;;;16.80;1.00;;;;;;4988543;28;20041;-85
2022/06/20 10:03:09;;;;;;;5.10;2.00;;;18.00;1.00;;;;;;4996275;28;20493;-85
2022/06/20 10:05:46;;;;;;;5.72;2.30;;;18.10;1.00;;;;;;4971347;28;20509;-86
2022/06/20 10:08:18;;;;;;;8.55;1.85;;;17.30;99.90;;;;;;4988225;28;20054;-85
2022/06/20 10:11:16;;;;;;;4.43;1.85;;;16.80;1.00;;;;;;4999171;28;20054;-85
2022/06/20 10:13:48;;;;;;;6.43;2.00;;;17.20;1.00;;;;;;4975436;28;20532;-85
2022/06/20 10:16:38;;;;;;;5.00;1.65;;;17.60;1.00;;;;;;4999054;28;20050;-85
2022/06/20 10:19:31;;;;;;;6.78;1.90;;;18.30;99.90;;;;;;5011152;28;20042;-85
2022/06/20 10:22:22;;;;;;;4.75;1.98;;;18.40;1.00;;;;;;4989805;28;20038;-85
2022/06/20 10:24:59;;;;;;;3.92;1.70;;;18.30;99.90;;;;;;4979258;28;20092;-85
2022/06/20 10:27:43;;;;;;;3.03;1.45;;;18.10;99.90;;;;;;5000857;28;20054;-85
2022/06/20 10:30:14;;;;;;;5.53;1.90;;;18.40;99.90;;;;;;4995430;28;20050;-84
2022/06/20 10:32:39;;;;;;;5.32;1.80;;;18.30;99.90;;;;;;4982346;28;20281;-85
2022/06/20 10:35:33;;;;;;;5.35;1.80;;;18.40;99.90;;;;;;4988652;28;20047;-85
2022/06/20 10:38:12;;;;;;;3.72;1.70;;;18.40;99.90;;;;;;5011854;28;20054;-85
2022/06/20 10:41:07;;;;;;;6.43;1.77;;;18.00;1.00;;;;;;4994632;28;20384;-86
2022/06/20 10:43:52;;;;;;;5.45;1.90;;;18.60;99.90;;;;;;4981736;28;20054;-86
2022/06/20 10:46:36;;;;;;;10.18;2.30;;;18.20;99.90;;;;;;5012627;28;20053;-85
2022/06/20 10:49:15;;;;;;;3.63;1.77;;;17.80;99.90;;;;;;4999934;28;20113;-85
2022/06/20 10:52:11;;;;;;;4.15;1.67;;;17.30;99.90;;;;;;4987368;28;20044;-85
2022/06/20 10:54:48;;;;;;;5.78;1.73;;;17.10;99.90;;;;;;5014394;28;20039;-85
2022/06/20 10:57:26;;;;;;;3.20;1.85;;;17.10;99.90;;;;;;4982684;28;20073;-85
2022/06/20 10:59:58;;;;;;;4.85;1.73;;;17.70;99.90;;;;;;5001484;28;20043;-86
2022/06/20 11:02:26;;;;;;;6.43;1.90;;;18.00;99.90;;;;;;4982102;28;20494;-85
2022/06/20 11:05:36;;;;;;;6.60;2.28;;;18.30;99.90;;;;;;4983486;28;20030;-85
2022/06/20 11:08:10;;;;;;;7.07;1.90;;;17.80;99.90;;;;;;4925863;28;20050;-85
2022/06/20 11:10:50;;;;;;;9.05;2.17;;;17.70;99.90;;;;;;4927031;28;20047;-86
2022/06/20 11:13:37;;;;;;;7.25;2.13;;;17.80;99.90;;;;;;4964092;28;20053;-86
2022/06/20 11:16:27;;;;;;;5.95;2.05;;;17.30;99.90;;;;;;5014268;28;20123;-85
2022/06/20 11:19:03;;;;;;;6.50;1.92;;;17.90;99.90;;;;;;4997253;28;20061;-85
2022/06/20 11:21:58;;;;;;;8.77;1.95;;;19.10;99.90;;;;;;4988625;28;20204;-86
2022/06/20 11:24:27;;;;;;;5.35;2.00;;;17.70;99.90;;;;;;4984913;28;20034;-86
2022/06/20 11:27:28;;;;;;;3.55;1.80;;;17.40;99.90;;;;;;4997294;28;20165;-85
2022/06/20 11:30:16;;;;;;;4.95;1.88;;;18.40;99.90;;;;;;5007271;28;20045;-84
2022/06/20 11:33:11;;;;;;;4.15;2.17;;;18.10;99.90;;;;;;5002756;28;20195;-85
2022/06/20 11:36:07;;;;;;;5.53;2.28;;;17.40;99.90;;;;;;4984005;28;20030;-86
2022/06/20 11:38:42;;;;;;;7.03;2.35;;;18.80;99.90;;;;;;4999096;28;20069;-85
2022/06/20 11:41:37;;;;;;;;;;;17.90;99.90;;;;;;5011396;28;20092;-86
2022/06/20 11:44:13;;;;;;;4.82;2.00;;;17.40;99.90;;;;;;4974930;28;19922;-85
2022/06/20 11:47:02;;;;;;;7.03;2.17;;;18.40;99.90;;;;;;5007251;28;20070;-85
2022/06/20 11:50:05;;;;;;;5.65;2.00;;;18.70;99.90;;;;;;5012288;28;20050;-85
2022/06/20 11:52:56;;;;;;;5.20;2.30;;;18.90;99.90;;;;;;4963501;28;20062;-85
2022/06/20 11:55:43;;;;;;;6.63;2.25;;;18.70;99.90;;;;;;4975537;28;20050;-86
2022/06/20 11:58:23;;;;;;;5.88;2.00;;;17.50;99.90;;;;;;4987826;28;20045;-85
2022/06/20 12:01:13;;;;;;;5.60;2.30;;;18.30;99.90;;;;;;4994289;28;20128;-85
2022/06/20 12:03:45;;;;;;;6.22;1.85;;;18.80;99.90;;;;;;5012967;28;20046;-85
2022/06/20 12:06:34;;;;;;;6.70;1.70;;;19.20;99.90;;;;;;5000837;28;20422;-86
2022/06/20 12:09:05;;;;;;;7.22;2.63;;;18.80;99.90;;;;;;5010903;28;20073;-84
2022/06/20 12:11:30;;;;;;;4.80;2.22;;;18.80;99.90;;;;;;4981762;28;20050;-85
2022/06/20 12:14:27;;;;;;;4.57;1.63;;;18.10;99.90;;;;;;4995462;28;20544;-85
2022/06/20 12:17:21;;;;;;;8.32;2.35;;;18.40;99.90;;;;;;4994682;28;20077;-85
2022/06/20 12:23:18;;;;;;;;;;;18.80;99.90;;;;;;4983640;28;20049;-84
2022/06/20 12:25:53;;;;;;;5.55;1.92;;;19.10;99.90;;;;;;4981339;28;19917;-86
2022/06/20 12:28:31;;;;;;;6.15;2.00;;;18.50;99.90;;;;;;5001006;28;20045;-85
2022/06/20 12:31:28;;;;;;;4.47;2.10;;;17.60;99.90;;;;;;5010938;28;20109;-85
2022/06/20 12:34:06;;;;;;;6.15;2.00;;;18.40;99.90;;;;;;4981267;28;20062;-87
2022/06/20 12:36:57;;;;;;;3.67;1.90;;;19.10;99.90;;;;;;4980449;28;20042;-86
2022/06/20 12:39:31;;;;;;;2.05;1.83;;;18.20;99.90;;;;;;4980119;28;20349;-85
2022/06/20 12:42:20;;;;;;;5.82;2.10;;;18.50;99.90;;;;;;5011328;28;20046;-86
2022/06/20 12:44:46;;;;;;;4.47;1.90;;;18.40;99.90;;;;;;4997807;28;20057;-85
2022/06/20 12:47:31;;;;;;;4.30;2.22;;;19.00;99.90;;;;;;5009812;28;20058;-85
2022/06/20 12:49:59;;;;;;;5.23;2.00;;;18.40;99.90;;;;;;4996105;28;20042;-86
2022/06/20 12:52:28;;;;;;;4.80;1.98;;;18.80;99.90;;;;;;4986439;28;20478;-86
2022/06/20 12:55:18;;;;;;;7.82;1.90;;;19.10;99.90;;;;;;4995040;28;20532;-86
2022/06/20 12:58:25;;;;;;;3.65;2.22;;;19.00;99.90;;;;;;5010500;28;20608;-85
2022/06/20 13:00:54;;;;;;;4.82;2.03;;;18.70;99.90;;;;;;4992108;28;20046;-86
2022/06/20 13:03:41;;;;;;;3.40;1.55;;;19.20;99.90;;;;;;4980269;28;20521;-86
2022/06/20 13:06:47;;;;;;;3.78;1.58;;;19.60;99.90;;;;;;4997175;28;20046;-86
2022/06/20 13:09:25;;;;;;;4.28;2.25;;;18.70;99.90;;;;;;4986441;28;20489;-85
2022/06/20 13:12:12;;;;;;;6.03;1.80;;;18.00;99.90;;;;;;4997636;28;20074;-86
2022/06/20 13:15:21;;;;;;;6.93;2.42;;;18.20;99.90;;;;;;4983015;28;20089;-86
2022/06/20 13:18:25;;;;;;;4.43;1.77;;;18.40;99.90;;;;;;4995392;28;20129;-86
2022/06/20 13:21:39;;;;;;;5.03;1.88;;;17.80;99.90;;;;;;4970893;28;20096;-85
2022/06/20 13:24:14;;;;;;;6.80;1.98;;;17.30;99.90;;;;;;4976397;28;20298;-86
2022/06/20 13:27:01;;;;;;;7.15;2.55;;;17.60;99.90;;;;;;4994988;28;20551;-86
2022/06/20 13:29:44;;;;;;;7.03;2.35;;;17.20;99.90;;;;;;5012861;28;20038;-86
2022/06/20 13:32:41;;;;;;;6.32;1.98;;;17.30;99.90;;;;;;4973221;28;20215;-86
2022/06/20 13:35:28;;;;;;;5.57;2.30;;;18.60;99.90;;;;;;4983420;28;20046;-85
2022/06/20 13:38:14;;;;;;;7.05;2.17;;;18.20;99.90;;;;;;5013970;28;20045;-86
2022/06/20 13:41:28;;;;;;;6.25;2.00;;;18.40;99.90;;;;;;5015709;28;20486;-85
2022/06/20 13:44:12;;;;;;;3.25;1.92;;;17.40;99.90;;;;;;4964192;28;20139;-85
2022/06/20 13:47:10;;;;;;;6.35;1.80;;;18.60;99.90;;;;;;4997539;28;20525;-86
2022/06/20 13:49:48;;;;;;;3.00;1.92;;;18.20;99.90;;;;;;4997616;28;20121;-86
2022/06/20 13:52:53;;;;;;;4.90;2.30;;;17.60;99.90;;;;;;4988855;28;20046;-85
2022/06/20 13:55:37;;;;;;;3.78;1.90;;;18.60;99.90;;;;;;4954195;28;20626;-85
2022/06/20 13:58:34;;;;;;;2.33;1.90;;;18.90;99.90;;;;;;4980249;28;20054;-86
2022/06/20 14:01:10;;;;;;;5.18;2.00;;;18.60;99.90;;;;;;4961617;28;20510;-85
2022/06/20 14:03:54;;;;;;;4.45;2.00;;;18.50;99.90;;;;;;4996084;28;20056;-86